sensor_id;sensor_type;location;lat;lon;timestamp;P1;durP1;ratioP1;P2;durP2;ratioP2
15167;SDS011;7684;52.150;11.656;2022-08-25T00:01:20;11.32;;;8.73;;
15167;SDS011;7684;52.150;11.656;2022-08-25T00:03:47;11.27;;;8.43;;
15167;SDS011;7684;52.150;11.656;2022-08-25T00:06:13;9.38;;;8.18;;
15167;SDS011;7684;52.150;11.656;2022-08-25T00:08:41;9.70;;;8.25;;
15167;SDS011;7684;52.150;11.656;2022-08-25T00:11:09;11.77;;;9.02;;
15167;SDS011;7684;52.150;11.656;2022-08-25T00:13:36;11.65;;;9.27;;
15167;SDS011;7684;52.150;11.656;2022-08-25T00:16:03;11.50;;;8.80;;
15167;SDS011;7684;52.150;11.656;2022-08-25T00:18:30;12.02;;;8.95;;
15167;SDS011;7684;52.150;11.656;2022-08-25T00:20:57;10.85;;;9.57;;
15167;SDS011;7684;52.150;11.656;2022-08-25T00:23:23;10.07;;;9.07;;
15167;SDS011;7684;52.150;11.656;2022-08-25T00:25:51;9.85;;;8.48;;
15167;SDS011;7684;52.150;11.656;2022-08-25T00:28:17;10.60;;;9.48;;
15167;SDS011;7684;52.150;11.656;2022-08-25T00:30:43;11.18;;;8.95;;
15167;SDS011;7684;52.150;11.656;2022-08-25T00:33:10;11.77;;;9.10;;
15167;SDS011;7684;52.150;11.656;2022-08-25T00:35:36;9.70;;;8.70;;
15167;SDS011;7684;52.150;11.656;2022-08-25T00:38:04;12.50;;;8.70;;
15167;SDS011;7684;52.150;11.656;2022-08-25T00:40:30;12.00;;;8.73;;
15167;SDS011;7684;52.150;11.656;2022-08-25T00:42:58;9.50;;;8.27;;
15167;SDS011;7684;52.150;11.656;2022-08-25T00:45:25;10.20;;;8.30;;
15167;SDS011;7684;52.150;11.656;2022-08-25T00:47:51;9.82;;;8.73;;
15167;SDS011;7684;52.150;11.656;2022-08-25T00:50:17;10.07;;;8.57;;
15167;SDS011;7684;52.150;11.656;2022-08-25T00:52:45;11.77;;;9.05;;
15167;SDS011;7684;52.150;11.656;2022-08-25T00:55:13;10.48;;;9.02;;
15167;SDS011;7684;52.150;11.656;2022-08-25T00:57:42;10.07;;;8.95;;
15167;SDS011;7684;52.150;11.656;2022-08-25T01:00:12;10.32;;;9.07;;
15167;SDS011;7684;52.150;11.656;2022-08-25T01:02:39;10.55;;;9.35;;
15167;SDS011;7684;52.150;11.656;2022-08-25T01:05:06;10.55;;;8.40;;
15167;SDS011;7684;52.150;11.656;2022-08-25T01:07:32;9.80;;;8.82;;
15167;SDS011;7684;52.150;11.656;2022-08-25T01:09:59;12.57;;;9.10;;
15167;SDS011;7684;52.150;11.656;2022-08-25T01:12:25;10.27;;;9.27;;
15167;SDS011;7684;52.150;11.656;2022-08-25T01:14:52;10.43;;;9.35;;
15167;SDS011;7684;52.150;11.656;2022-08-25T01:17:20;12.57;;;8.98;;
15167;SDS011;7684;52.150;11.656;2022-08-25T01:19:46;9.93;;;8.93;;
15167;SDS011;7684;52.150;11.656;2022-08-25T01:22:14;10.45;;;8.85;;
15167;SDS011;7684;52.150;11.656;2022-08-25T01:24:41;10.02;;;9.13;;
15167;SDS011;7684;52.150;11.656;2022-08-25T01:27:10;9.48;;;8.48;;
15167;SDS011;7684;52.150;11.656;2022-08-25T01:29:36;10.55;;;9.52;;
15167;SDS011;7684;52.150;11.656;2022-08-25T01:32:04;10.13;;;8.98;;
15167;SDS011;7684;52.150;11.656;2022-08-25T01:34:32;11.57;;;10.48;;
15167;SDS011;7684;52.150;11.656;2022-08-25T01:36:59;9.73;;;8.75;;
15167;SDS011;7684;52.150;11.656;2022-08-25T01:39:28;11.00;;;9.70;;
15167;SDS011;7684;52.150;11.656;2022-08-25T01:42:02;11.30;;;9.88;;
15167;SDS011;7684;52.150;11.656;2022-08-25T01:44:29;12.63;;;9.48;;
15167;SDS011;7684;52.150;11.656;2022-08-25T01:46:55;11.63;;;9.23;;
15167;SDS011;7684;52.150;11.656;2022-08-25T01:49:22;11.00;;;9.85;;
15167;SDS011;7684;52.150;11.656;2022-08-25T01:51:51;10.27;;;9.27;;
15167;SDS011;7684;52.150;11.656;2022-08-25T01:54:17;11.07;;;9.45;;
15167;SDS011;7684;52.150;11.656;2022-08-25T01:56:45;11.85;;;9.25;;
15167;SDS011;7684;52.150;11.656;2022-08-25T01:59:13;13.32;;;9.80;;
15167;SDS011;7684;52.150;11.656;2022-08-25T02:01:40;14.00;;;11.38;;
15167;SDS011;7684;52.150;11.656;2022-08-25T02:04:06;12.00;;;9.75;;
15167;SDS011;7684;52.150;11.656;2022-08-25T02:06:33;11.90;;;10.55;;
15167;SDS011;7684;52.150;11.656;2022-08-25T02:09:01;12.40;;;11.10;;
15167;SDS011;7684;52.150;11.656;2022-08-25T02:11:29;12.55;;;10.45;;
15167;SDS011;7684;52.150;11.656;2022-08-25T02:13:57;12.73;;;10.90;;
15167;SDS011;7684;52.150;11.656;2022-08-25T02:16:25;12.13;;;10.90;;
15167;SDS011;7684;52.150;11.656;2022-08-25T02:18:53;14.00;;;11.20;;
15167;SDS011;7684;52.150;11.656;2022-08-25T02:21:19;14.35;;;11.07;;
15167;SDS011;7684;52.150;11.656;2022-08-25T02:23:46;12.13;;;9.63;;
15167;SDS011;7684;52.150;11.656;2022-08-25T02:26:12;12.52;;;11.13;;
15167;SDS011;7684;52.150;11.656;2022-08-25T02:28:40;16.00;;;13.02;;
15167;SDS011;7684;52.150;11.656;2022-08-25T02:31:08;13.07;;;11.82;;
15167;SDS011;7684;52.150;11.656;2022-08-25T02:33:35;14.35;;;12.95;;
15167;SDS011;7684;52.150;11.656;2022-08-25T02:36:01;16.27;;;12.68;;
15167;SDS011;7684;52.150;11.656;2022-08-25T02:38:28;13.52;;;12.13;;
15167;SDS011;7684;52.150;11.656;2022-08-25T02:40:56;12.90;;;11.60;;
15167;SDS011;7684;52.150;11.656;2022-08-25T02:43:22;14.20;;;12.80;;
15167;SDS011;7684;52.150;11.656;2022-08-25T02:45:49;14.77;;;13.25;;
15167;SDS011;7684;52.150;11.656;2022-08-25T02:48:17;15.40;;;13.88;;
15167;SDS011;7684;52.150;11.656;2022-08-25T02:50:45;16.98;;;14.57;;
15167;SDS011;7684;52.150;11.656;2022-08-25T02:53:11;16.05;;;14.25;;
15167;SDS011;7684;52.150;11.656;2022-08-25T02:55:38;16.23;;;14.07;;
15167;SDS011;7684;52.150;11.656;2022-08-25T02:58:04;15.15;;;13.57;;
15167;SDS011;7684;52.150;11.656;2022-08-25T03:00:33;16.70;;;14.75;;
15167;SDS011;7684;52.150;11.656;2022-08-25T03:02:59;16.15;;;14.52;;
15167;SDS011;7684;52.150;11.656;2022-08-25T03:05:27;15.70;;;14.20;;
15167;SDS011;7684;52.150;11.656;2022-08-25T03:07:53;17.73;;;15.38;;
15167;SDS011;7684;52.150;11.656;2022-08-25T03:10:20;18.60;;;14.98;;
15167;SDS011;7684;52.150;11.656;2022-08-25T03:12:46;18.33;;;15.55;;
15167;SDS011;7684;52.150;11.656;2022-08-25T03:15:15;16.38;;;14.60;;
15167;SDS011;7684;52.150;11.656;2022-08-25T03:17:42;16.67;;;14.57;;
15167;SDS011;7684;52.150;11.656;2022-08-25T03:20:09;16.25;;;14.55;;
15167;SDS011;7684;52.150;11.656;2022-08-25T03:22:36;17.80;;;15.85;;
15167;SDS011;7684;52.150;11.656;2022-08-25T03:25:04;16.00;;;14.30;;
15167;SDS011;7684;52.150;11.656;2022-08-25T03:27:45;16.05;;;14.50;;
15167;SDS011;7684;52.150;11.656;2022-08-25T03:30:13;16.30;;;14.68;;
15167;SDS011;7684;52.150;11.656;2022-08-25T03:32:40;14.60;;;13.38;;
15167;SDS011;7684;52.150;11.656;2022-08-25T03:35:06;18.60;;;14.63;;
15167;SDS011;7684;52.150;11.656;2022-08-25T03:37:33;16.17;;;14.48;;
15167;SDS011;7684;52.150;11.656;2022-08-25T03:40:01;17.05;;;15.40;;
15167;SDS011;7684;52.150;11.656;2022-08-25T03:42:28;17.83;;;14.85;;
15167;SDS011;7684;52.150;11.656;2022-08-25T03:44:54;16.40;;;14.77;;
15167;SDS011;7684;52.150;11.656;2022-08-25T03:47:21;16.77;;;14.60;;
15167;SDS011;7684;52.150;11.656;2022-08-25T03:49:49;17.95;;;16.25;;
15167;SDS011;7684;52.150;11.656;2022-08-25T03:52:16;18.48;;;16.58;;
15167;SDS011;7684;52.150;11.656;2022-08-25T03:54:42;16.17;;;14.50;;
15167;SDS011;7684;52.150;11.656;2022-08-25T03:57:11;15.27;;;13.68;;
15167;SDS011;7684;52.150;11.656;2022-08-25T03:59:37;17.38;;;15.50;;
15167;SDS011;7684;52.150;11.656;2022-08-25T04:02:03;18.80;;;14.30;;
15167;SDS011;7684;52.150;11.656;2022-08-25T04:04:30;17.85;;;15.82;;
15167;SDS011;7684;52.150;11.656;2022-08-25T04:06:57;17.88;;;15.02;;
15167;SDS011;7684;52.150;11.656;2022-08-25T04:09:23;16.27;;;14.57;;
15167;SDS011;7684;52.150;11.656;2022-08-25T04:11:50;17.00;;;15.20;;
15167;SDS011;7684;52.150;11.656;2022-08-25T04:14:18;17.63;;;15.85;;
15167;SDS011;7684;52.150;11.656;2022-08-25T04:16:45;17.27;;;15.25;;
15167;SDS011;7684;52.150;11.656;2022-08-25T04:19:11;17.20;;;15.43;;
15167;SDS011;7684;52.150;11.656;2022-08-25T04:21:38;18.35;;;16.35;;
15167;SDS011;7684;52.150;11.656;2022-08-25T04:24:06;16.48;;;14.77;;
15167;SDS011;7684;52.150;11.656;2022-08-25T04:26:34;18.20;;;16.27;;
15167;SDS011;7684;52.150;11.656;2022-08-25T04:29:01;17.58;;;15.60;;
15167;SDS011;7684;52.150;11.656;2022-08-25T04:31:31;17.85;;;15.93;;
15167;SDS011;7684;52.150;11.656;2022-08-25T04:34:00;16.52;;;14.88;;
15167;SDS011;7684;52.150;11.656;2022-08-25T04:36:26;18.42;;;16.38;;
15167;SDS011;7684;52.150;11.656;2022-08-25T04:38:53;19.83;;;15.63;;
15167;SDS011;7684;52.150;11.656;2022-08-25T04:41:19;17.85;;;15.27;;
15167;SDS011;7684;52.150;11.656;2022-08-25T04:43:46;17.85;;;16.05;;
15167;SDS011;7684;52.150;11.656;2022-08-25T04:46:14;18.02;;;16.08;;
15167;SDS011;7684;52.150;11.656;2022-08-25T04:48:42;18.08;;;14.93;;
15167;SDS011;7684;52.150;11.656;2022-08-25T04:51:10;18.38;;;15.88;;
15167;SDS011;7684;52.150;11.656;2022-08-25T04:53:37;18.38;;;15.40;;
15167;SDS011;7684;52.150;11.656;2022-08-25T04:56:04;20.70;;;14.85;;
15167;SDS011;7684;52.150;11.656;2022-08-25T04:58:31;19.10;;;17.05;;
15167;SDS011;7684;52.150;11.656;2022-08-25T05:01:00;20.23;;;16.80;;
15167;SDS011;7684;52.150;11.656;2022-08-25T05:03:26;19.27;;;15.63;;
15167;SDS011;7684;52.150;11.656;2022-08-25T05:05:54;17.42;;;15.32;;
15167;SDS011;7684;52.150;11.656;2022-08-25T05:08:20;22.48;;;17.92;;
15167;SDS011;7684;52.150;11.656;2022-08-25T05:10:46;21.23;;;17.05;;
15167;SDS011;7684;52.150;11.656;2022-08-25T05:13:13;24.20;;;18.45;;
15167;SDS011;7684;52.150;11.656;2022-08-25T05:15:39;24.75;;;20.25;;
15167;SDS011;7684;52.150;11.656;2022-08-25T05:18:18;24.35;;;18.67;;
15167;SDS011;7684;52.150;11.656;2022-08-25T05:20:45;25.73;;;18.95;;
15167;SDS011;7684;52.150;11.656;2022-08-25T05:23:12;25.17;;;19.95;;
15167;SDS011;7684;52.150;11.656;2022-08-25T05:25:39;23.33;;;19.58;;
15167;SDS011;7684;52.150;11.656;2022-08-25T05:28:06;25.58;;;19.77;;
15167;SDS011;7684;52.150;11.656;2022-08-25T05:30:33;25.80;;;20.58;;
15167;SDS011;7684;52.150;11.656;2022-08-25T05:33:02;27.90;;;20.48;;
15167;SDS011;7684;52.150;11.656;2022-08-25T05:35:28;27.75;;;20.13;;
15167;SDS011;7684;52.150;11.656;2022-08-25T05:37:54;23.83;;;19.67;;
15167;SDS011;7684;52.150;11.656;2022-08-25T05:40:23;24.15;;;18.15;;
15167;SDS011;7684;52.150;11.656;2022-08-25T05:42:49;22.77;;;19.13;;
15167;SDS011;7684;52.150;11.656;2022-08-25T05:45:16;23.70;;;18.60;;
15167;SDS011;7684;52.150;11.656;2022-08-25T05:47:42;23.77;;;19.77;;
15167;SDS011;7684;52.150;11.656;2022-08-25T05:50:09;27.23;;;19.30;;
15167;SDS011;7684;52.150;11.656;2022-08-25T05:52:36;24.00;;;20.13;;
15167;SDS011;7684;52.150;11.656;2022-08-25T05:55:03;22.60;;;19.05;;
15167;SDS011;7684;52.150;11.656;2022-08-25T05:57:31;26.98;;;20.92;;
15167;SDS011;7684;52.150;11.656;2022-08-25T05:59:57;24.98;;;19.73;;
15167;SDS011;7684;52.150;11.656;2022-08-25T06:02:24;24.58;;;19.48;;
15167;SDS011;7684;52.150;11.656;2022-08-25T06:05:11;21.95;;;18.20;;
15167;SDS011;7684;52.150;11.656;2022-08-25T06:07:39;21.38;;;17.42;;
15167;SDS011;7684;52.150;11.656;2022-08-25T06:10:06;26.92;;;17.73;;
15167;SDS011;7684;52.150;11.656;2022-08-25T06:12:37;21.90;;;17.38;;
15167;SDS011;7684;52.150;11.656;2022-08-25T06:15:04;18.40;;;15.57;;
15167;SDS011;7684;52.150;11.656;2022-08-25T06:17:31;23.67;;;16.67;;
15167;SDS011;7684;52.150;11.656;2022-08-25T06:19:59;19.70;;;16.85;;
15167;SDS011;7684;52.150;11.656;2022-08-25T06:22:25;24.15;;;17.85;;
15167;SDS011;7684;52.150;11.656;2022-08-25T06:24:52;19.40;;;17.27;;
15167;SDS011;7684;52.150;11.656;2022-08-25T06:27:19;17.90;;;15.82;;
15167;SDS011;7684;52.150;11.656;2022-08-25T06:29:47;20.13;;;16.67;;
15167;SDS011;7684;52.150;11.656;2022-08-25T06:32:13;17.80;;;15.90;;
15167;SDS011;7684;52.150;11.656;2022-08-25T06:34:40;20.25;;;16.20;;
15167;SDS011;7684;52.150;11.656;2022-08-25T06:37:06;19.50;;;15.75;;
15167;SDS011;7684;52.150;11.656;2022-08-25T06:39:33;17.42;;;15.43;;
15167;SDS011;7684;52.150;11.656;2022-08-25T06:41:59;21.17;;;17.27;;
15167;SDS011;7684;52.150;11.656;2022-08-25T06:44:26;26.50;;;19.33;;
15167;SDS011;7684;52.150;11.656;2022-08-25T06:46:54;24.38;;;18.45;;
15167;SDS011;7684;52.150;11.656;2022-08-25T06:49:20;20.52;;;17.15;;
15167;SDS011;7684;52.150;11.656;2022-08-25T06:51:47;20.05;;;17.67;;
15167;SDS011;7684;52.150;11.656;2022-08-25T06:54:13;21.67;;;17.80;;
15167;SDS011;7684;52.150;11.656;2022-08-25T06:56:40;18.17;;;16.15;;
15167;SDS011;7684;52.150;11.656;2022-08-25T06:59:06;20.50;;;17.17;;
15167;SDS011;7684;52.150;11.656;2022-08-25T07:01:33;18.67;;;16.05;;
15167;SDS011;7684;52.150;11.656;2022-08-25T07:04:02;22.73;;;18.15;;
15167;SDS011;7684;52.150;11.656;2022-08-25T07:06:30;21.60;;;15.45;;
15167;SDS011;7684;52.150;11.656;2022-08-25T07:08:56;24.88;;;17.25;;
15167;SDS011;7684;52.150;11.656;2022-08-25T07:11:23;24.55;;;18.05;;
15167;SDS011;7684;52.150;11.656;2022-08-25T07:13:50;20.70;;;17.33;;
15167;SDS011;7684;52.150;11.656;2022-08-25T07:16:16;24.00;;;17.63;;
15167;SDS011;7684;52.150;11.656;2022-08-25T07:18:44;23.02;;;16.75;;
15167;SDS011;7684;52.150;11.656;2022-08-25T07:21:12;21.08;;;17.13;;
15167;SDS011;7684;52.150;11.656;2022-08-25T07:23:39;22.33;;;17.23;;
15167;SDS011;7684;52.150;11.656;2022-08-25T07:26:06;22.10;;;16.77;;
15167;SDS011;7684;52.150;11.656;2022-08-25T07:28:33;22.58;;;17.55;;
15167;SDS011;7684;52.150;11.656;2022-08-25T07:30:59;25.30;;;18.45;;
15167;SDS011;7684;52.150;11.656;2022-08-25T07:33:25;19.40;;;16.35;;
15167;SDS011;7684;52.150;11.656;2022-08-25T07:35:52;21.42;;;18.08;;
15167;SDS011;7684;52.150;11.656;2022-08-25T07:38:19;22.88;;;18.10;;
15167;SDS011;7684;52.150;11.656;2022-08-25T07:40:45;19.58;;;16.27;;
15167;SDS011;7684;52.150;11.656;2022-08-25T07:43:19;21.77;;;15.55;;
15167;SDS011;7684;52.150;11.656;2022-08-25T07:45:45;22.23;;;16.77;;
15167;SDS011;7684;52.150;11.656;2022-08-25T07:48:12;23.00;;;17.63;;
15167;SDS011;7684;52.150;11.656;2022-08-25T07:50:40;20.60;;;16.05;;
15167;SDS011;7684;52.150;11.656;2022-08-25T07:53:07;21.98;;;17.42;;
15167;SDS011;7684;52.150;11.656;2022-08-25T07:55:35;21.20;;;16.17;;
15167;SDS011;7684;52.150;11.656;2022-08-25T07:58:02;20.27;;;15.43;;
15167;SDS011;7684;52.150;11.656;2022-08-25T08:00:29;23.92;;;16.23;;
15167;SDS011;7684;52.150;11.656;2022-08-25T08:02:59;22.27;;;16.50;;
15167;SDS011;7684;52.150;11.656;2022-08-25T08:05:26;18.80;;;15.15;;
15167;SDS011;7684;52.150;11.656;2022-08-25T08:07:53;18.13;;;13.70;;
15167;SDS011;7684;52.150;11.656;2022-08-25T08:10:20;16.05;;;12.68;;
15167;SDS011;7684;52.150;11.656;2022-08-25T08:12:48;18.90;;;14.07;;
15167;SDS011;7684;52.150;11.656;2022-08-25T08:15:15;15.18;;;13.40;;
15167;SDS011;7684;52.150;11.656;2022-08-25T08:17:41;14.95;;;12.15;;
15167;SDS011;7684;52.150;11.656;2022-08-25T08:20:08;15.00;;;12.05;;
15167;SDS011;7684;52.150;11.656;2022-08-25T08:22:35;16.27;;;13.18;;
15167;SDS011;7684;52.150;11.656;2022-08-25T08:25:02;16.08;;;12.40;;
15167;SDS011;7684;52.150;11.656;2022-08-25T08:27:29;12.95;;;11.13;;
15167;SDS011;7684;52.150;11.656;2022-08-25T08:29:57;13.50;;;10.95;;
15167;SDS011;7684;52.150;11.656;2022-08-25T08:32:23;16.05;;;11.70;;
15167;SDS011;7684;52.150;11.656;2022-08-25T08:34:50;16.27;;;11.63;;
15167;SDS011;7684;52.150;11.656;2022-08-25T08:37:16;13.57;;;10.38;;
15167;SDS011;7684;52.150;11.656;2022-08-25T08:39:42;14.00;;;9.38;;
15167;SDS011;7684;52.150;11.656;2022-08-25T08:42:14;14.07;;;9.25;;
15167;SDS011;7684;52.150;11.656;2022-08-25T08:44:52;8.98;;;7.85;;
15167;SDS011;7684;52.150;11.656;2022-08-25T08:47:22;12.43;;;8.90;;
15167;SDS011;7684;52.150;11.656;2022-08-25T08:49:55;11.65;;;8.80;;
15167;SDS011;7684;52.150;11.656;2022-08-25T08:52:23;18.90;;;9.32;;
15167;SDS011;7684;52.150;11.656;2022-08-25T08:54:54;10.98;;;8.43;;
15167;SDS011;7684;52.150;11.656;2022-08-25T08:57:24;15.73;;;10.00;;
15167;SDS011;7684;52.150;11.656;2022-08-25T08:59:52;10.68;;;8.60;;
15167;SDS011;7684;52.150;11.656;2022-08-25T09:02:24;10.35;;;8.23;;
15167;SDS011;7684;52.150;11.656;2022-08-25T09:04:52;14.27;;;8.98;;
15167;SDS011;7684;52.150;11.656;2022-08-25T09:07:20;13.85;;;8.52;;
15167;SDS011;7684;52.150;11.656;2022-08-25T09:09:48;13.02;;;8.73;;
15167;SDS011;7684;52.150;11.656;2022-08-25T09:12:18;12.85;;;9.25;;
15167;SDS011;7684;52.150;11.656;2022-08-25T09:14:51;13.27;;;8.77;;
15167;SDS011;7684;52.150;11.656;2022-08-25T09:17:20;15.30;;;9.00;;
15167;SDS011;7684;52.150;11.656;2022-08-25T09:20:01;10.57;;;8.05;;
15167;SDS011;7684;52.150;11.656;2022-08-25T09:22:35;10.90;;;8.57;;
15167;SDS011;7684;52.150;11.656;2022-08-25T09:25:04;10.95;;;7.57;;
15167;SDS011;7684;52.150;11.656;2022-08-25T09:27:34;11.48;;;8.88;;
15167;SDS011;7684;52.150;11.656;2022-08-25T09:30:04;14.50;;;8.38;;
15167;SDS011;7684;52.150;11.656;2022-08-25T09:32:31;10.32;;;7.05;;
15167;SDS011;7684;52.150;11.656;2022-08-25T09:35:00;8.40;;;7.30;;
15167;SDS011;7684;52.150;11.656;2022-08-25T09:37:27;10.48;;;8.55;;
15167;SDS011;7684;52.150;11.656;2022-08-25T09:39:54;10.07;;;7.22;;
15167;SDS011;7684;52.150;11.656;2022-08-25T09:42:20;13.10;;;8.82;;
15167;SDS011;7684;52.150;11.656;2022-08-25T09:44:47;7.65;;;6.72;;
15167;SDS011;7684;52.150;11.656;2022-08-25T09:47:18;11.25;;;8.27;;
15167;SDS011;7684;52.150;11.656;2022-08-25T09:49:46;7.63;;;6.93;;
15167;SDS011;7684;52.150;11.656;2022-08-25T09:52:20;10.63;;;7.45;;
15167;SDS011;7684;52.150;11.656;2022-08-25T09:54:47;8.55;;;6.95;;
15167;SDS011;7684;52.150;11.656;2022-08-25T09:57:26;11.02;;;6.88;;
15167;SDS011;7684;52.150;11.656;2022-08-25T09:59:53;10.32;;;6.75;;
15167;SDS011;7684;52.150;11.656;2022-08-25T10:02:21;6.82;;;5.85;;
15167;SDS011;7684;52.150;11.656;2022-08-25T10:04:49;11.68;;;7.03;;
15167;SDS011;7684;52.150;11.656;2022-08-25T10:07:21;10.02;;;6.28;;
15167;SDS011;7684;52.150;11.656;2022-08-25T10:09:50;9.90;;;6.63;;
15167;SDS011;7684;52.150;11.656;2022-08-25T10:12:20;11.93;;;6.25;;
15167;SDS011;7684;52.150;11.656;2022-08-25T10:14:48;8.23;;;5.40;;
15167;SDS011;7684;52.150;11.656;2022-08-25T10:17:15;8.50;;;4.53;;
15167;SDS011;7684;52.150;11.656;2022-08-25T10:19:48;7.55;;;4.78;;
15167;SDS011;7684;52.150;11.656;2022-08-25T10:22:21;8.30;;;5.05;;
15167;SDS011;7684;52.150;11.656;2022-08-25T10:24:56;7.13;;;4.80;;
15167;SDS011;7684;52.150;11.656;2022-08-25T10:27:25;8.70;;;5.70;;
15167;SDS011;7684;52.150;11.656;2022-08-25T10:32:56;8.70;;;5.93;;
15167;SDS011;7684;52.150;11.656;2022-08-25T10:35:28;9.95;;;5.50;;
15167;SDS011;7684;52.150;11.656;2022-08-25T10:38:01;8.88;;;5.50;;
15167;SDS011;7684;52.150;11.656;2022-08-25T10:40:28;6.28;;;5.13;;
15167;SDS011;7684;52.150;11.656;2022-08-25T10:42:59;7.88;;;4.70;;
15167;SDS011;7684;52.150;11.656;2022-08-25T10:45:28;9.50;;;5.45;;
15167;SDS011;7684;52.150;11.656;2022-08-25T10:48:17;7.68;;;4.70;;
15167;SDS011;7684;52.150;11.656;2022-08-25T10:50:51;7.63;;;5.40;;
15167;SDS011;7684;52.150;11.656;2022-08-25T10:53:26;8.73;;;5.22;;
15167;SDS011;7684;52.150;11.656;2022-08-25T10:56:02;6.57;;;5.38;;
15167;SDS011;7684;52.150;11.656;2022-08-25T10:58:35;8.20;;;5.63;;
15167;SDS011;7684;52.150;11.656;2022-08-25T11:01:08;8.90;;;4.38;;
15167;SDS011;7684;52.150;11.656;2022-08-25T11:03:39;7.40;;;4.78;;
15167;SDS011;7684;52.150;11.656;2022-08-25T11:06:10;6.47;;;5.18;;
15167;SDS011;7684;52.150;11.656;2022-08-25T11:08:41;8.55;;;5.25;;
15167;SDS011;7684;52.150;11.656;2022-08-25T11:11:09;8.38;;;5.18;;
15167;SDS011;7684;52.150;11.656;2022-08-25T11:13:40;6.70;;;5.00;;
15167;SDS011;7684;52.150;11.656;2022-08-25T11:16:09;8.15;;;5.80;;
15167;SDS011;7684;52.150;11.656;2022-08-25T11:18:38;9.50;;;5.85;;
15167;SDS011;7684;52.150;11.656;2022-08-25T11:21:08;9.98;;;5.20;;
15167;SDS011;7684;52.150;11.656;2022-08-25T11:23:37;7.80;;;5.18;;
15167;SDS011;7684;52.150;11.656;2022-08-25T11:26:07;8.82;;;5.22;;
15167;SDS011;7684;52.150;11.656;2022-08-25T11:28:38;11.18;;;6.15;;
15167;SDS011;7684;52.150;11.656;2022-08-25T11:31:08;7.68;;;4.80;;
15167;SDS011;7684;52.150;11.656;2022-08-25T11:33:35;8.40;;;5.50;;
15167;SDS011;7684;52.150;11.656;2022-08-25T11:36:04;9.32;;;5.53;;
15167;SDS011;7684;52.150;11.656;2022-08-25T11:38:38;8.63;;;5.70;;
15167;SDS011;7684;52.150;11.656;2022-08-25T11:41:12;6.97;;;5.18;;
15167;SDS011;7684;52.150;11.656;2022-08-25T11:43:44;6.68;;;5.60;;
15167;SDS011;7684;52.150;11.656;2022-08-25T11:46:25;6.82;;;6.15;;
15167;SDS011;7684;52.150;11.656;2022-08-25T11:48:55;7.03;;;6.03;;
15167;SDS011;7684;52.150;11.656;2022-08-25T11:51:27;5.95;;;4.70;;
15167;SDS011;7684;52.150;11.656;2022-08-25T11:54:04;5.50;;;4.82;;
15167;SDS011;7684;52.150;11.656;2022-08-25T11:56:35;7.75;;;4.90;;
15167;SDS011;7684;52.150;11.656;2022-08-25T11:59:02;8.27;;;5.13;;
15167;SDS011;7684;52.150;11.656;2022-08-25T12:04:33;5.07;;;4.57;;
15167;SDS011;7684;52.150;11.656;2022-08-25T12:12:35;6.88;;;4.82;;
15167;SDS011;7684;52.150;11.656;2022-08-25T12:15:12;7.63;;;4.75;;
15167;SDS011;7684;52.150;11.656;2022-08-25T12:17:40;6.40;;;4.65;;
15167;SDS011;7684;52.150;11.656;2022-08-25T12:20:06;6.78;;;4.60;;
15167;SDS011;7684;52.150;11.656;2022-08-25T12:22:55;6.57;;;4.88;;
15167;SDS011;7684;52.150;11.656;2022-08-25T12:28:06;7.45;;;5.47;;
15167;SDS011;7684;52.150;11.656;2022-08-25T12:30:38;7.05;;;5.30;;
15167;SDS011;7684;52.150;11.656;2022-08-25T12:33:09;6.40;;;5.05;;
15167;SDS011;7684;52.150;11.656;2022-08-25T12:35:38;6.35;;;5.05;;
15167;SDS011;7684;52.150;11.656;2022-08-25T12:38:06;6.43;;;4.45;;
15167;SDS011;7684;52.150;11.656;2022-08-25T12:40:35;6.35;;;4.70;;
15167;SDS011;7684;52.150;11.656;2022-08-25T12:43:08;5.95;;;4.85;;
15167;SDS011;7684;52.150;11.656;2022-08-25T12:45:37;7.30;;;4.95;;
15167;SDS011;7684;52.150;11.656;2022-08-25T12:50:48;13.23;;;5.88;;
15167;SDS011;7684;52.150;11.656;2022-08-25T12:53:23;9.65;;;5.82;;
15167;SDS011;7684;52.150;11.656;2022-08-25T12:55:56;6.90;;;5.95;;
15167;SDS011;7684;52.150;11.656;2022-08-25T12:58:26;9.32;;;5.68;;
15167;SDS011;7684;52.150;11.656;2022-08-25T13:00:57;8.80;;;5.90;;
15167;SDS011;7684;52.150;11.656;2022-08-25T13:03:53;9.55;;;5.95;;
15167;SDS011;7684;52.150;11.656;2022-08-25T13:06:26;8.82;;;5.57;;
15167;SDS011;7684;52.150;11.656;2022-08-25T13:09:07;7.75;;;5.50;;
15167;SDS011;7684;52.150;11.656;2022-08-25T13:11:43;8.30;;;5.50;;
15167;SDS011;7684;52.150;11.656;2022-08-25T13:14:13;6.05;;;4.57;;
15167;SDS011;7684;52.150;11.656;2022-08-25T13:16:50;10.20;;;5.10;;
15167;SDS011;7684;52.150;11.656;2022-08-25T13:19:17;7.38;;;5.00;;
15167;SDS011;7684;52.150;11.656;2022-08-25T13:21:44;10.15;;;4.75;;
15167;SDS011;7684;52.150;11.656;2022-08-25T13:24:13;10.75;;;5.63;;
15167;SDS011;7684;52.150;11.656;2022-08-25T13:26:41;11.70;;;4.80;;
15167;SDS011;7684;52.150;11.656;2022-08-25T13:29:11;10.93;;;5.28;;
15167;SDS011;7684;52.150;11.656;2022-08-25T13:31:48;7.47;;;4.18;;
15167;SDS011;7684;52.150;11.656;2022-08-25T13:34:16;9.38;;;5.00;;
15167;SDS011;7684;52.150;11.656;2022-08-25T13:36:44;9.35;;;4.78;;
15167;SDS011;7684;52.150;11.656;2022-08-25T13:39:28;8.90;;;5.03;;
15167;SDS011;7684;52.150;11.656;2022-08-25T13:41:57;8.05;;;4.70;;
15167;SDS011;7684;52.150;11.656;2022-08-25T13:44:24;10.68;;;4.50;;
15167;SDS011;7684;52.150;11.656;2022-08-25T13:47:04;10.07;;;5.72;;
15167;SDS011;7684;52.150;11.656;2022-08-25T13:49:33;9.32;;;5.13;;
15167;SDS011;7684;52.150;11.656;2022-08-25T13:52:00;11.05;;;4.88;;
15167;SDS011;7684;52.150;11.656;2022-08-25T13:54:27;12.77;;;5.30;;
15167;SDS011;7684;52.150;11.656;2022-08-25T13:57:02;13.52;;;4.93;;
15167;SDS011;7684;52.150;11.656;2022-08-25T13:59:30;9.13;;;4.95;;
15167;SDS011;7684;52.150;11.656;2022-08-25T14:01:57;9.15;;;4.90;;
15167;SDS011;7684;52.150;11.656;2022-08-25T14:04:27;10.68;;;4.85;;
15167;SDS011;7684;52.150;11.656;2022-08-25T14:07:06;9.52;;;4.60;;
15167;SDS011;7684;52.150;11.656;2022-08-25T14:09:37;8.25;;;4.65;;
15167;SDS011;7684;52.150;11.656;2022-08-25T14:12:03;10.23;;;4.53;;
15167;SDS011;7684;52.150;11.656;2022-08-25T14:14:31;8.75;;;4.13;;
15167;SDS011;7684;52.150;11.656;2022-08-25T14:16:59;9.35;;;4.57;;
15167;SDS011;7684;52.150;11.656;2022-08-25T14:19:28;9.95;;;4.95;;
15167;SDS011;7684;52.150;11.656;2022-08-25T14:21:55;9.98;;;5.38;;
15167;SDS011;7684;52.150;11.656;2022-08-25T14:24:24;8.82;;;5.35;;
15167;SDS011;7684;52.150;11.656;2022-08-25T14:26:51;9.98;;;5.45;;
15167;SDS011;7684;52.150;11.656;2022-08-25T14:29:18;8.40;;;5.00;;
15167;SDS011;7684;52.150;11.656;2022-08-25T14:31:44;8.70;;;5.20;;
15167;SDS011;7684;52.150;11.656;2022-08-25T14:34:12;10.27;;;4.70;;
15167;SDS011;7684;52.150;11.656;2022-08-25T14:36:41;8.77;;;5.05;;
15167;SDS011;7684;52.150;11.656;2022-08-25T14:39:08;8.82;;;4.72;;
15167;SDS011;7684;52.150;11.656;2022-08-25T14:41:35;9.23;;;4.70;;
15167;SDS011;7684;52.150;11.656;2022-08-25T14:44:02;9.40;;;4.78;;
15167;SDS011;7684;52.150;11.656;2022-08-25T14:46:29;11.80;;;5.28;;
15167;SDS011;7684;52.150;11.656;2022-08-25T14:48:57;7.47;;;4.75;;
15167;SDS011;7684;52.150;11.656;2022-08-25T14:51:24;11.52;;;4.97;;
15167;SDS011;7684;52.150;11.656;2022-08-25T14:53:53;9.88;;;4.95;;
15167;SDS011;7684;52.150;11.656;2022-08-25T14:56:20;8.93;;;5.10;;
15167;SDS011;7684;52.150;11.656;2022-08-25T14:58:47;8.45;;;5.15;;